메인 페이지
METAR-TAF:

METAR-TAF

공항 :

Guymon, 오클라호마, 미국

위도: 36-40-54N, 경도: 101-30-19W, 고도: 952m

현재 날씨관측

예보는 36분 전, 16:53시(UTC)에 발표되었습니다.
여러 방향의 바람 5kt
온도 17°C
습도 39%
기압 1032 hPa
시정: 16.1km
고도 8500ft 상공 흐림

METAR: KGUY 171653Z AUTO VRB05KT 10SM OVC085 17/03 A3048 RMK AO2 RAB24E46 SLP307 P0000 T01670033

시각: 12:29 (17:29 UTC)

예보

예보는 6 시간 9분 전, 11:20시(UTC)에 발표되었습니다.
예보 대상 시간: 17일 12시부터 18일 12시까지 (UTC)
북북서5kt
시정: 10km
고도 20000ft 상공 구름 조금
17일 1400시부터 (UTC)
6kt
시정: 10km
고도 9000ft 상공 구름 많음
18일 0300시부터 (UTC)
5kt
시정: 10km
고도 11000ft 상공 구름 많음

TAF: KGUY 171120Z 1712/1812 33005KT P6SM FEW200 FM171400 36006KT P6SM BKN090 FM180300 10005KT P6SM BKN110

4,000개 이상의 공항 관측 자료 및 예보 (METAR 및 TAF 보고).

지도상에서 검색 가능한 기상관측소가 노란 점과 빨간 점으로 표시되어 있습니다.

기상관측소 명을 보려면 표시 위로 마우스를 이동하세요.

날씨 관측과 예보를 보려면 클릭하세요.

지도 변경 : 확대하려면 엑스 표시가 있는 녹색 버튼, 축소하려면 빼기 표시가 있는 녹색 버튼, 다음 페이지의 지도를 보려면 녹색 화살표를 클릭하세요.


METAR-TAF: